createdAt,value
2022-11-09T00:01:03.112Z,25.17
2022-11-09T00:03:29.637Z,26.17
2022-11-09T00:06:00.548Z,24.98
2022-11-09T00:08:27.888Z,24.30
2022-11-09T00:10:54.453Z,23.88
2022-11-09T00:13:22.131Z,22.77
2022-11-09T00:15:49.077Z,23.90
2022-11-09T00:18:15.623Z,24.40
2022-11-09T00:20:47.203Z,25.65
2022-11-09T00:23:15.247Z,25.08
2022-11-09T00:25:41.793Z,26.42
2022-11-09T00:28:08.315Z,24.83
2022-11-09T00:30:34.838Z,24.40
2022-11-09T00:33:01.340Z,25.73
2022-11-09T00:35:27.895Z,24.73
2022-11-09T00:37:54.829Z,25.80
2022-11-09T00:40:21.376Z,24.15
2022-11-09T00:42:47.893Z,25.25
2022-11-09T00:45:14.455Z,23.70
2022-11-09T00:47:40.990Z,24.25
2022-11-09T00:50:07.980Z,26.15
2022-11-09T00:52:34.498Z,24.00
2022-11-09T00:55:01.133Z,25.23
2022-11-09T00:57:28.930Z,25.52
2022-11-09T00:59:55.452Z,24.33
2022-11-09T01:02:21.968Z,25.65
2022-11-09T01:04:48.517Z,26.30
2022-11-09T01:07:15.132Z,23.15
2022-11-09T01:09:42.151Z,24.92
2022-11-09T01:12:08.724Z,26.33
2022-11-09T01:14:35.253Z,25.80
2022-11-09T01:17:01.755Z,25.02
2022-11-09T01:19:28.284Z,24.73
2022-11-09T01:21:54.790Z,25.60
2022-11-09T01:24:21.337Z,24.77
2022-11-09T01:26:47.934Z,25.40
2022-11-09T01:29:14.439Z,25.05
2022-11-09T01:31:40.978Z,24.90
2022-11-09T01:34:07.522Z,24.98
2022-11-09T01:36:34.013Z,25.67
2022-11-09T01:39:00.999Z,24.77
2022-11-09T01:41:29.115Z,26.38
2022-11-09T01:44:19.632Z,23.63
2022-11-09T01:46:52.013Z,26.98
2022-11-09T01:49:46.970Z,23.92
2022-11-09T01:52:18.133Z,24.67
2022-11-09T01:54:48.409Z,24.35
2022-11-09T01:57:44.851Z,24.85
2022-11-09T02:00:14.260Z,23.73
2022-11-09T02:03:05.273Z,24.00
2022-11-09T02:05:35.004Z,22.55
2022-11-09T02:08:05.358Z,25.02
2022-11-09T02:10:39.773Z,23.30
2022-11-09T02:13:09.759Z,23.17
2022-11-09T02:15:39.137Z,23.20
2022-11-09T02:18:09.567Z,24.08
2022-11-09T02:20:49.922Z,22.60
2022-11-09T02:23:17.837Z,23.23
2022-11-09T02:25:49.455Z,22.70
2022-11-09T02:28:16.563Z,23.90
2022-11-09T02:30:46.856Z,23.50
2022-11-09T02:33:13.351Z,24.25
2022-11-09T02:35:39.900Z,22.60
2022-11-09T02:38:09.924Z,21.67
2022-11-09T02:40:41.022Z,22.55
2022-11-09T02:43:10.007Z,22.42
2022-11-09T02:45:36.965Z,21.77
2022-11-09T02:48:03.912Z,22.33
2022-11-09T02:50:30.529Z,21.45
2022-11-09T02:52:57.110Z,22.38
2022-11-09T02:55:23.628Z,22.00
2022-11-09T02:57:50.157Z,21.35
2022-11-09T03:00:17.013Z,22.25
2022-11-09T03:02:43.615Z,22.20
2022-11-09T03:05:10.331Z,21.55
2022-11-09T03:07:36.857Z,22.73
2022-11-09T03:10:03.837Z,21.63
2022-11-09T03:12:30.447Z,21.15
2022-11-09T03:15:02.069Z,22.52
2022-11-09T03:17:29.010Z,20.30
2022-11-09T03:19:55.669Z,20.08
2022-11-09T03:22:22.324Z,20.30
2022-11-09T03:24:49.011Z,22.13
2022-11-09T03:27:15.962Z,21.13
2022-11-09T03:29:42.502Z,21.98
2022-11-09T03:32:09.739Z,23.08
2022-11-09T03:34:36.528Z,21.15
2022-11-09T03:37:03.121Z,21.73
2022-11-09T03:39:29.659Z,20.45
2022-11-09T03:41:56.202Z,21.85
2022-11-09T03:44:22.775Z,20.88
2022-11-09T03:46:49.266Z,21.02
2022-11-09T03:49:15.885Z,21.73
2022-11-09T03:51:42.472Z,21.70
2022-11-09T03:54:09.046Z,21.58
2022-11-09T03:56:35.582Z,21.58
2022-11-09T03:59:02.149Z,21.85
2022-11-09T04:01:28.704Z,20.42
2022-11-09T04:03:55.255Z,21.05
2022-11-09T04:06:21.812Z,21.38
2022-11-09T04:08:51.357Z,21.25
2022-11-09T04:11:18.427Z,21.27
2022-11-09T04:13:44.978Z,20.65
2022-11-09T04:16:12.411Z,21.48
2022-11-09T04:18:38.946Z,19.20
2022-11-09T04:21:05.507Z,21.15
2022-11-09T04:23:32.071Z,19.88
2022-11-09T04:25:59.643Z,20.10
2022-11-09T04:28:26.628Z,20.58
2022-11-09T04:30:53.295Z,20.35
2022-11-09T04:33:20.224Z,20.02
2022-11-09T04:35:46.950Z,20.40
2022-11-09T04:38:14.557Z,20.75
2022-11-09T04:40:41.219Z,20.75
2022-11-09T04:43:11.601Z,19.52
2022-11-09T04:45:38.152Z,19.77
2022-11-09T04:48:06.657Z,20.10
2022-11-09T04:50:34.060Z,21.02
2022-11-09T04:53:12.112Z,21.50
2022-11-09T04:55:39.958Z,20.27
2022-11-09T04:58:07.236Z,19.30
2022-11-09T05:00:34.933Z,19.15
2022-11-09T05:03:02.587Z,19.10
2022-11-09T05:05:29.678Z,19.10
2022-11-09T05:07:56.525Z,18.83
2022-11-09T05:10:23.057Z,19.73
2022-11-09T05:12:49.662Z,20.65
2022-11-09T05:15:16.309Z,17.83
2022-11-09T05:17:42.924Z,18.05
2022-11-09T05:20:10.103Z,22.25
2022-11-09T05:22:58.668Z,17.65
2022-11-09T05:25:25.251Z,17.13
2022-11-09T05:27:52.717Z,17.92
2022-11-09T05:30:19.732Z,18.25
2022-11-09T05:32:46.377Z,18.38
2022-11-09T05:35:13.028Z,19.08
2022-11-09T05:37:40.053Z,17.30
2022-11-09T05:40:09.261Z,18.98
2022-11-09T05:42:39.496Z,17.83
2022-11-09T05:45:35.576Z,16.45
2022-11-09T05:47:53.366Z,16.38
2022-11-09T05:50:19.955Z,17.35
2022-11-09T05:52:46.471Z,17.52
2022-11-09T05:55:13.046Z,17.60
2022-11-09T05:57:39.683Z,19.13
2022-11-09T06:00:10.844Z,16.88
2022-11-09T06:02:37.720Z,18.67
2022-11-09T06:05:04.424Z,19.75
2022-11-09T06:07:30.934Z,17.35
2022-11-09T06:09:57.485Z,16.08
2022-11-09T06:12:24.036Z,17.08
2022-11-09T06:14:50.547Z,17.98
2022-11-09T06:17:17.069Z,16.13
2022-11-09T06:19:43.663Z,17.25
2022-11-09T06:22:10.244Z,16.60
2022-11-09T06:24:37.009Z,17.63
2022-11-09T06:27:03.725Z,16.15
2022-11-09T06:29:30.259Z,16.20
2022-11-09T06:31:56.911Z,17.75
2022-11-09T06:34:23.508Z,17.05
2022-11-09T06:36:50.151Z,16.52
2022-11-09T06:39:16.733Z,15.48
2022-11-09T06:41:47.264Z,16.55
2022-11-09T06:44:14.218Z,15.60
2022-11-09T06:46:40.950Z,17.15
2022-11-09T06:49:08.230Z,16.08
2022-11-09T06:51:34.764Z,15.32
2022-11-09T06:54:01.292Z,17.25
2022-11-09T06:56:28.012Z,15.10
2022-11-09T06:58:54.644Z,17.13
2022-11-09T07:01:26.541Z,16.88
2022-11-09T07:03:53.163Z,16.15
2022-11-09T07:06:19.680Z,17.98
2022-11-09T07:08:46.219Z,16.95
2022-11-09T07:11:16.284Z,14.80
2022-11-09T07:13:43.154Z,16.55
2022-11-09T07:16:12.026Z,16.98
2022-11-09T07:18:38.811Z,15.65
2022-11-09T07:21:08.851Z,15.57
2022-11-09T07:23:39.568Z,18.27
2022-11-09T07:26:06.174Z,16.20
2022-11-09T07:28:32.724Z,17.30
2022-11-09T07:30:59.490Z,16.17
2022-11-09T07:33:26.632Z,16.08
2022-11-09T07:35:53.400Z,15.68
2022-11-09T07:38:20.009Z,14.43
2022-11-09T07:40:46.735Z,14.50
2022-11-09T07:43:13.328Z,15.40
2022-11-09T07:45:40.575Z,15.95
2022-11-09T07:48:10.195Z,15.30
2022-11-09T07:50:38.801Z,15.23
2022-11-09T07:53:07.328Z,15.52
2022-11-09T07:55:34.782Z,15.70
2022-11-09T07:58:21.570Z,15.63
2022-11-09T08:00:48.145Z,15.48
2022-11-09T08:03:14.663Z,14.77
2022-11-09T08:05:41.331Z,15.15
2022-11-09T08:08:10.519Z,14.98
2022-11-09T08:10:37.551Z,15.18
2022-11-09T08:13:10.625Z,15.98
2022-11-09T08:15:38.412Z,13.05
2022-11-09T08:18:08.567Z,14.80
2022-11-09T08:20:35.406Z,15.35
2022-11-09T08:23:04.761Z,15.52
2022-11-09T08:25:33.494Z,15.65
2022-11-09T08:28:00.209Z,14.32
2022-11-09T08:30:27.250Z,15.15
2022-11-09T08:32:53.790Z,13.68
2022-11-09T08:35:22.867Z,13.50
2022-11-09T08:37:51.275Z,15.95
2022-11-09T08:40:23.604Z,14.95
2022-11-09T08:42:50.936Z,17.13
2022-11-09T08:45:18.123Z,15.20
2022-11-09T08:47:45.663Z,15.93
2022-11-09T08:50:14.564Z,21.33
2022-11-09T08:52:41.145Z,18.48
2022-11-09T08:55:08.203Z,15.30
2022-11-09T08:57:35.016Z,16.48
2022-11-09T09:00:01.595Z,16.73
2022-11-09T09:02:28.161Z,14.57
2022-11-09T09:04:54.661Z,28.27
2022-11-09T09:07:21.292Z,16.38
2022-11-09T09:09:48.006Z,15.95
2022-11-09T09:12:14.606Z,16.25
2022-11-09T09:14:41.146Z,17.00
2022-11-09T09:17:07.722Z,16.52
2022-11-09T09:19:34.846Z,16.88
2022-11-09T09:22:01.622Z,17.83
2022-11-09T09:24:28.503Z,18.20
2022-11-09T09:26:55.402Z,17.60
2022-11-09T09:29:21.971Z,19.27
2022-11-09T09:31:48.525Z,17.13
2022-11-09T09:34:15.272Z,19.00
2022-11-09T09:36:47.317Z,18.02
2022-11-09T09:39:14.851Z,18.25
2022-11-09T09:41:50.555Z,17.23
2022-11-09T09:44:32.531Z,18.45
2022-11-09T09:47:11.955Z,18.20
2022-11-09T09:49:46.238Z,17.05
2022-11-09T09:52:25.973Z,24.45
2022-11-09T09:55:08.311Z,19.10
2022-11-09T09:57:41.511Z,18.58
2022-11-09T10:00:15.924Z,17.00
2022-11-09T10:02:43.271Z,18.13
2022-11-09T10:05:15.467Z,18.50
2022-11-09T10:08:17.694Z,17.70
2022-11-09T10:10:59.714Z,17.42
2022-11-09T10:13:50.931Z,18.63
2022-11-09T10:16:34.727Z,18.90
2022-11-09T10:19:51.146Z,19.08
2022-11-09T10:25:27.369Z,17.33
2022-11-09T10:27:57.573Z,18.45
2022-11-09T10:30:25.949Z,17.00
2022-11-09T10:32:56.367Z,19.98
2022-11-09T10:35:41.231Z,19.95
2022-11-09T10:38:15.770Z,20.58
2022-11-09T10:41:00.658Z,20.92
2022-11-09T10:43:27.175Z,17.73
2022-11-09T10:46:06.288Z,18.88
2022-11-09T10:48:35.805Z,18.50
2022-11-09T10:51:03.053Z,21.17
2022-11-09T10:53:31.656Z,22.75
2022-11-09T10:56:04.190Z,32.88
2022-11-09T10:58:38.045Z,18.98
2022-11-09T11:01:13.678Z,18.67
2022-11-09T11:03:42.016Z,64.97
2022-11-09T11:06:23.565Z,21.23
2022-11-09T11:09:12.779Z,21.77
2022-11-09T11:11:40.097Z,20.98
2022-11-09T11:14:31.999Z,39.13
2022-11-09T11:16:59.069Z,16.33
2022-11-09T11:19:37.092Z,14.10
2022-11-09T11:22:12.565Z,16.65
2022-11-09T11:24:43.035Z,16.70
2022-11-09T11:27:18.072Z,19.30
2022-11-09T11:29:55.085Z,17.55
2022-11-09T11:32:23.705Z,18.63
2022-11-09T11:35:05.484Z,18.80
2022-11-09T11:38:07.258Z,18.58
2022-11-09T11:40:43.965Z,18.40
2022-11-09T11:43:27.704Z,17.02
2022-11-09T11:46:09.441Z,19.17
2022-11-09T11:48:50.945Z,18.67
2022-11-09T11:51:30.271Z,17.73
2022-11-09T11:54:12.432Z,18.77
2022-11-09T11:56:59.463Z,18.08
2022-11-09T11:59:44.464Z,17.85
2022-11-09T12:02:23.216Z,16.88
2022-11-09T12:05:01.711Z,17.88
2022-11-09T12:07:34.256Z,17.80
2022-11-09T12:10:45.498Z,18.83
2022-11-09T12:14:09.165Z,17.70
2022-11-09T12:17:13.939Z,17.55
2022-11-09T12:20:03.343Z,17.60
2022-11-09T12:22:29.990Z,17.02
2022-11-09T12:25:22.610Z,17.33
2022-11-09T12:28:01.464Z,19.33
2022-11-09T12:31:06.571Z,19.50
2022-11-09T12:33:45.500Z,17.23
2022-11-09T12:36:31.376Z,17.73
2022-11-09T12:39:10.768Z,16.55
2022-11-09T12:41:38.628Z,16.05
2022-11-09T12:44:25.425Z,16.40
2022-11-09T12:47:06.983Z,15.43
2022-11-09T12:49:38.335Z,17.33
2022-11-09T12:52:11.780Z,18.35
2022-11-09T12:54:42.709Z,16.58
2022-11-09T12:57:22.828Z,16.73
2022-11-09T12:59:52.147Z,16.98
2022-11-09T13:02:34.939Z,16.45
2022-11-09T13:05:08.468Z,16.30
2022-11-09T13:07:50.021Z,15.68
2022-11-09T13:10:34.968Z,14.98
2022-11-09T13:13:04.363Z,15.35
2022-11-09T13:15:34.174Z,15.82
2022-11-09T13:18:25.957Z,15.77
2022-11-09T13:20:56.031Z,14.50
2022-11-09T13:26:47.852Z,13.73
2022-11-09T13:29:25.675Z,14.88
2022-11-09T13:32:04.638Z,15.48
2022-11-09T13:34:40.119Z,14.10
2022-11-09T13:37:40.705Z,16.52
2022-11-09T13:40:48.542Z,16.00
2022-11-09T13:43:17.884Z,16.23
2022-11-09T13:45:56.552Z,15.95
2022-11-09T13:48:41.347Z,16.58
2022-11-09T13:51:21.514Z,17.13
2022-11-09T13:53:56.008Z,15.50
2022-11-09T13:56:37.905Z,14.60
2022-11-09T13:59:13.421Z,16.48
2022-11-09T14:01:48.990Z,15.85
2022-11-09T14:04:24.560Z,16.70
2022-11-09T14:07:03.959Z,18.15
2022-11-09T14:10:09.415Z,16.17
2022-11-09T14:12:46.794Z,16.65
2022-11-09T14:15:29.020Z,15.20
2022-11-09T14:18:10.810Z,16.08
2022-11-09T14:21:00.578Z,14.55
2022-11-09T14:23:32.095Z,13.90
2022-11-09T14:25:58.682Z,15.27
2022-11-09T14:28:31.064Z,16.13
2022-11-09T14:30:57.816Z,17.88
2022-11-09T14:33:35.562Z,17.33
2022-11-09T14:36:04.919Z,15.63
2022-11-09T14:38:36.580Z,15.90
2022-11-09T14:41:03.881Z,15.45
2022-11-09T14:43:43.144Z,14.52
2022-11-09T14:46:30.775Z,14.85
2022-11-09T14:49:00.636Z,14.57
2022-11-09T14:51:35.537Z,15.52
2022-11-09T14:56:30.652Z,12.95
2022-11-09T14:58:58.074Z,14.57
2022-11-09T15:01:27.071Z,13.48
2022-11-09T15:04:20.260Z,14.50
2022-11-09T15:06:56.164Z,16.67
2022-11-09T15:09:44.724Z,14.95
2022-11-09T15:12:16.112Z,15.82
2022-11-09T15:14:43.080Z,15.18
2022-11-09T15:17:15.129Z,15.32
2022-11-09T15:19:57.162Z,15.45
2022-11-09T15:22:52.997Z,15.13
2022-11-09T15:25:19.516Z,15.10
2022-11-09T15:27:58.068Z,16.27
2022-11-09T15:30:33.451Z,16.45
2022-11-09T15:33:00.843Z,18.35
2022-11-09T15:35:28.130Z,20.35
2022-11-09T15:37:55.730Z,22.50
2022-11-09T15:40:24.793Z,22.83
2022-11-09T15:42:51.532Z,21.42
2022-11-09T15:45:21.142Z,22.52
2022-11-09T15:47:54.456Z,22.40
2022-11-09T15:50:24.968Z,22.00
2022-11-09T15:52:51.686Z,22.33
2022-11-09T15:55:24.413Z,21.88
2022-11-09T15:57:52.528Z,23.42
2022-11-09T16:00:21.449Z,22.77
2022-11-09T16:02:48.591Z,21.35
2022-11-09T16:05:15.883Z,23.63
2022-11-09T16:07:49.899Z,21.80
2022-11-09T16:10:20.228Z,23.27
2022-11-09T16:12:47.497Z,22.83
2022-11-09T16:15:14.322Z,23.25
2022-11-09T16:17:41.035Z,22.17
2022-11-09T16:20:08.002Z,25.40
2022-11-09T16:22:34.809Z,23.70
2022-11-09T16:25:01.441Z,24.60
2022-11-09T16:27:49.134Z,24.65
2022-11-09T16:30:15.630Z,22.42
2022-11-09T16:32:42.213Z,24.85
2022-11-09T16:35:26.130Z,24.02
2022-11-09T16:37:55.275Z,24.10
2022-11-09T16:40:23.118Z,24.55
2022-11-09T16:42:51.966Z,23.40
2022-11-09T16:45:20.389Z,24.23
2022-11-09T16:47:53.979Z,24.27
2022-11-09T16:50:20.555Z,23.52
2022-11-09T16:52:47.145Z,23.95
2022-11-09T16:55:13.683Z,25.20
2022-11-09T16:57:40.629Z,22.80
2022-11-09T17:00:08.483Z,26.02
2022-11-09T17:02:35.150Z,25.80
2022-11-09T17:05:01.775Z,26.05
2022-11-09T17:07:28.691Z,23.50
2022-11-09T17:09:55.189Z,24.90
2022-11-09T17:12:21.950Z,26.20
2022-11-09T17:14:48.598Z,26.63
2022-11-09T17:17:21.299Z,24.60
2022-11-09T17:19:49.698Z,26.30
2022-11-09T17:22:16.899Z,25.95
2022-11-09T17:24:43.556Z,26.13
2022-11-09T17:27:11.608Z,23.48
2022-11-09T17:29:38.861Z,24.60
2022-11-09T17:32:06.982Z,26.15
2022-11-09T17:34:34.146Z,27.17
2022-11-09T17:37:04.753Z,27.33
2022-11-09T17:39:32.411Z,24.92
2022-11-09T17:41:58.968Z,26.00
2022-11-09T17:44:25.503Z,27.15
2022-11-09T17:46:52.213Z,26.77
2022-11-09T17:49:18.799Z,24.52
2022-11-09T17:51:45.307Z,26.35
2022-11-09T17:54:12.004Z,23.25
2022-11-09T17:56:38.588Z,25.75
2022-11-09T17:59:05.611Z,27.77
2022-11-09T18:01:37.883Z,27.10
2022-11-09T18:04:07.441Z,27.10
2022-11-09T18:06:34.187Z,24.10
2022-11-09T18:09:39.154Z,27.60
2022-11-09T18:11:47.939Z,26.98
2022-11-09T18:14:15.971Z,24.23
2022-11-09T18:16:42.622Z,26.73
2022-11-09T18:19:09.158Z,27.83
2022-11-09T18:21:35.696Z,26.95
2022-11-09T18:24:02.430Z,26.65
2022-11-09T18:26:29.193Z,27.35
2022-11-09T18:28:56.883Z,28.10
2022-11-09T18:31:23.701Z,28.23
2022-11-09T18:33:50.938Z,26.38
2022-11-09T18:36:19.772Z,28.60
2022-11-09T18:38:47.032Z,28.15
2022-11-09T18:41:17.716Z,27.67
2022-11-09T18:43:45.122Z,26.23
2022-11-09T18:46:14.108Z,27.65
2022-11-09T18:48:40.971Z,28.00
2022-11-09T18:51:08.997Z,28.92
2022-11-09T18:53:40.870Z,28.98
2022-11-09T18:56:23.457Z,29.20
2022-11-09T18:58:52.958Z,25.17
2022-11-09T19:01:20.317Z,49.20
2022-11-09T19:03:47.006Z,47.33
2022-11-09T19:06:16.761Z,30.00
2022-11-09T19:09:02.366Z,29.27
2022-11-09T19:11:30.120Z,25.67
2022-11-09T19:13:56.654Z,28.25
2022-11-09T19:16:24.855Z,27.05
2022-11-09T19:18:51.709Z,25.88
2022-11-09T19:21:21.283Z,27.60
2022-11-09T19:23:47.868Z,27.52
2022-11-09T19:26:14.450Z,27.92
2022-11-09T19:28:41.032Z,25.83
2022-11-09T19:31:11.948Z,27.27
2022-11-09T19:33:38.481Z,26.67
2022-11-09T19:36:29.228Z,25.15
2022-11-09T19:38:52.247Z,26.67
2022-11-09T19:41:18.855Z,26.55
2022-11-09T19:43:49.369Z,25.63
2022-11-09T19:46:16.506Z,26.52
2022-11-09T19:48:47.235Z,26.55
2022-11-09T19:51:15.407Z,25.98
2022-11-09T19:53:42.744Z,25.58
2022-11-09T19:56:09.758Z,26.05
2022-11-09T19:58:36.327Z,23.83
2022-11-09T20:01:08.301Z,24.80
2022-11-09T20:03:35.469Z,26.38
2022-11-09T20:06:04.192Z,26.25
2022-11-09T20:08:36.578Z,27.83
2022-11-09T20:11:08.112Z,27.67
2022-11-09T20:13:36.860Z,25.90
2022-11-09T20:16:12.081Z,25.73
2022-11-09T20:18:39.547Z,25.10
2022-11-09T20:21:09.100Z,24.23
2022-11-09T20:23:35.658Z,25.38
2022-11-09T20:26:06.771Z,25.65
2022-11-09T20:28:33.645Z,25.30
2022-11-09T20:31:00.201Z,25.13
2022-11-09T20:33:26.780Z,26.67
2022-11-09T20:35:54.427Z,25.38
2022-11-09T20:38:22.100Z,25.50
2022-11-09T20:40:56.768Z,24.55
2022-11-09T20:43:24.637Z,27.30
2022-11-09T20:45:51.590Z,24.92
2022-11-09T20:48:38.767Z,26.25
2022-11-09T20:51:07.043Z,25.10
2022-11-09T20:53:34.083Z,27.67
2022-11-09T20:56:01.081Z,27.50
2022-11-09T20:58:27.757Z,27.40
2022-11-09T21:01:01.872Z,28.23
2022-11-09T21:03:28.499Z,27.30
2022-11-09T21:05:59.666Z,26.63
2022-11-09T21:08:27.160Z,26.00
2022-11-09T21:10:54.128Z,26.52
2022-11-09T21:13:21.415Z,24.55
2022-11-09T21:15:48.434Z,24.42
2022-11-09T21:18:15.163Z,27.02
2022-11-09T21:20:42.017Z,27.02
2022-11-09T21:23:13.188Z,26.63
2022-11-09T21:26:02.460Z,25.58
2022-11-09T21:28:47.843Z,26.35
2022-11-09T21:31:14.536Z,25.30
2022-11-09T21:33:41.482Z,27.10
2022-11-09T21:36:14.264Z,28.95
2022-11-09T21:38:40.958Z,26.30
2022-11-09T21:41:27.770Z,29.65
2022-11-09T21:43:55.363Z,28.23
2022-11-09T21:46:23.460Z,28.67
2022-11-09T21:48:50.754Z,30.10
2022-11-09T21:51:17.339Z,26.15
2022-11-09T21:53:43.876Z,28.05
2022-11-09T21:56:10.430Z,27.15
2022-11-09T21:58:36.955Z,30.25
2022-11-09T22:01:08.570Z,27.58
2022-11-09T22:03:35.459Z,28.77
2022-11-09T22:06:02.156Z,27.77
2022-11-09T22:08:28.773Z,29.17
2022-11-09T22:11:06.072Z,27.70
2022-11-09T22:13:51.739Z,28.48
2022-11-09T22:16:19.980Z,28.90
2022-11-09T22:19:05.692Z,29.63
2022-11-09T22:21:32.962Z,30.33
2022-11-09T22:24:00.812Z,30.00
2022-11-09T22:26:29.022Z,31.58
2022-11-09T22:28:57.370Z,33.70
2022-11-09T22:31:24.448Z,32.60
2022-11-09T22:33:51.759Z,30.20
2022-11-09T22:36:19.073Z,31.60
2022-11-09T22:38:46.899Z,34.20
2022-11-09T22:41:14.911Z,31.42
2022-11-09T22:43:43.722Z,33.20
2022-11-09T22:46:15.478Z,33.20
2022-11-09T22:48:43.554Z,32.50
2022-11-09T22:51:12.645Z,33.03
2022-11-09T22:53:39.616Z,34.22
2022-11-09T22:56:06.441Z,34.42
2022-11-09T22:58:32.991Z,32.67
2022-11-09T23:01:07.142Z,33.38
2022-11-09T23:03:34.684Z,35.20
2022-11-09T23:06:03.461Z,35.88
2022-11-09T23:08:34.105Z,36.13
2022-11-09T23:11:07.887Z,36.55
2022-11-09T23:13:35.056Z,35.42
2022-11-09T23:16:05.072Z,35.17
2022-11-09T23:18:51.012Z,34.88
2022-11-09T23:21:18.388Z,32.40
2022-11-09T23:23:45.152Z,32.28
2022-11-09T23:26:12.083Z,34.47
2022-11-09T23:28:38.648Z,32.97
2022-11-09T23:31:09.304Z,33.80
2022-11-09T23:33:36.097Z,32.28
2022-11-09T23:36:04.300Z,34.75
2022-11-09T23:38:35.742Z,31.23
2022-11-09T23:41:06.428Z,29.35
2022-11-09T23:43:33.312Z,32.53
2022-11-09T23:46:08.329Z,29.80
2022-11-09T23:48:35.360Z,32.58
2022-11-09T23:51:03.303Z,34.33
2022-11-09T23:53:31.596Z,32.53
2022-11-09T23:56:03.340Z,31.73
2022-11-09T23:58:30.343Z,30.67
